Time;durP1;ratioP1;P1;durP2;ratioP2;P2;SDS_P1;SDS_P2;PMS_P1;PMS_P2;Temp;Humidity;BMP_temperature;BMP_pressure;BME280_temperature;BME280_humidity;BME280_pressure;Samples;Min_cycle;Max_cycle;Signal;HPM_P1;HPM_P2
2024/04/13 00:00:56;;;;;;;0.20;0.10;;;;;;;-146.84;100.00;66378.44;5492551;26;20260;-64
2024/04/13 00:03:23;;;;;;;0.20;0.10;;;;;;;-146.84;100.00;66378.44;5497665;26;20226;-67
2024/04/13 00:05:50;;;;;;;0.20;0.10;;;;;;;-146.84;100.00;66378.44;5494790;26;20278;-67
2024/04/13 00:08:16;;;;;;;0.20;0.10;;;;;;;-146.84;100.00;66378.44;5491113;26;20601;-64
2024/04/13 00:10:43;;;;;;;0.20;0.10;;;;;;;-146.84;100.00;66378.44;5497615;26;20584;-64
2024/04/13 00:13:09;;;;;;;0.20;0.10;;;;;;;-146.84;100.00;66378.44;5480376;26;20231;-64
2024/04/13 00:15:36;;;;;;;0.20;0.10;;;;;;;-146.84;100.00;66378.44;5484721;26;20223;-65
2024/04/13 00:18:06;;;;;;;0.20;0.10;;;;;;;-146.84;100.00;66378.44;5492755;26;20302;-64
2024/04/13 00:20:32;;;;;;;0.20;0.10;;;;;;;-146.84;100.00;66378.44;5516174;26;20725;-64
2024/04/13 00:22:59;;;;;;;0.20;0.10;;;;;;;-146.84;100.00;66378.44;5490942;26;20299;-64
2024/04/13 00:25:29;;;;;;;0.20;0.10;;;;;;;-146.84;100.00;66378.44;5486296;26;20223;-64
2024/04/13 00:27:55;;;;;;;0.20;0.10;;;;;;;-146.84;100.00;66378.44;5500361;26;20671;-64
2024/04/13 00:30:22;;;;;;;0.20;0.10;;;;;;;-146.84;100.00;66378.44;5486609;26;20273;-64
2024/04/13 00:32:49;;;;;;;0.20;0.10;;;;;;;-146.84;100.00;66378.44;5484678;26;20343;-64
2024/04/13 00:35:15;;;;;;;0.20;0.10;;;;;;;-146.84;100.00;66378.44;5488690;26;20222;-65
2024/04/13 00:37:41;;;;;;;0.20;0.10;;;;;;;-146.84;100.00;66378.44;5484871;26;20239;-64
2024/04/13 00:40:07;;;;;;;0.20;0.10;;;;;;;-146.84;100.00;66378.44;5490486;26;20702;-65
2024/04/13 00:42:33;;;;;;;0.20;0.10;;;;;;;-146.84;100.00;66378.44;5482651;26;20228;-65
2024/04/13 00:45:03;;;;;;;0.20;0.10;;;;;;;-146.84;100.00;66378.44;5478207;26;20843;-65
2024/04/13 00:47:32;;;;;;;0.20;0.10;;;;;;;-146.84;100.00;66378.44;5490723;26;20230;-65
2024/04/13 00:50:00;;;;;;;0.20;0.10;;;;;;;-146.84;100.00;66378.44;5479658;26;20227;-65
2024/04/13 00:52:26;;;;;;;0.20;0.10;;;;;;;-146.84;100.00;66378.44;5485951;26;20547;-65
2024/04/13 00:54:55;;;;;;;0.20;0.10;;;;;;;-146.84;100.00;66378.44;5482774;26;20238;-66
2024/04/13 00:57:23;;;;;;;0.20;0.10;;;;;;;-146.84;100.00;66378.44;5490122;26;20558;-65
2024/04/13 00:59:50;;;;;;;0.20;0.10;;;;;;;-146.84;100.00;66378.44;5482890;26;21096;-65
2024/04/13 01:02:19;;;;;;;0.20;0.10;;;;;;;-146.84;100.00;66378.44;5484813;26;20564;-65
2024/04/13 01:04:50;;;;;;;0.20;0.10;;;;;;;-146.84;100.00;66378.44;5481136;26;20232;-65
2024/04/13 01:07:19;;;;;;;0.20;0.10;;;;;;;-146.84;100.00;66378.44;5483559;26;20719;-66
2024/04/13 01:09:46;;;;;;;0.20;0.10;;;;;;;-146.84;100.00;66378.44;5484417;26;20326;-65
2024/04/13 01:12:13;;;;;;;0.20;0.10;;;;;;;-146.84;100.00;66378.44;5486049;26;20227;-65
2024/04/13 01:14:41;;;;;;;0.20;0.10;;;;;;;-146.84;100.00;66378.44;5475965;26;22404;-65
2024/04/13 01:17:07;;;;;;;0.20;0.10;;;;;;;-146.84;100.00;66378.44;5480445;26;20631;-65
2024/04/13 01:19:34;;;;;;;0.20;0.10;;;;;;;-146.84;100.00;66378.44;5497380;26;20551;-65
2024/04/13 01:22:00;;;;;;;0.20;0.10;;;;;;;-146.84;100.00;66378.44;5497598;26;20230;-65
2024/04/13 01:24:27;;;;;;;0.20;0.10;;;;;;;-146.84;100.00;66378.44;5510425;25;20268;-65
2024/04/13 01:26:54;;;;;;;0.20;0.10;;;;;;;-146.84;100.00;66378.44;5487438;26;20243;-66
2024/04/13 01:29:20;;;;;;;0.20;0.10;;;;;;;-146.84;100.00;66378.44;5483027;26;20223;-65
2024/04/13 01:31:47;;;;;;;0.20;0.10;;;;;;;-146.84;100.00;66378.44;5483694;26;20230;-65
2024/04/13 01:34:13;;;;;;;0.20;0.10;;;;;;;-146.84;100.00;66378.44;5474739;26;20231;-66
2024/04/13 01:36:40;;;;;;;0.20;0.10;;;;;;;-146.84;100.00;66378.44;5490926;26;21169;-65
2024/04/13 01:39:11;;;;;;;0.20;0.10;;;;;;;-146.84;100.00;66378.44;5485857;26;20223;-65
2024/04/13 01:41:39;;;;;;;0.20;0.00;;;;;;;-146.84;100.00;66378.44;5484868;26;20223;-66
2024/04/13 01:44:06;;;;;;;0.20;0.10;;;;;;;-146.84;100.00;66378.44;5478161;26;20244;-66
2024/04/13 01:46:34;;;;;;;0.20;0.10;;;;;;;-146.84;100.00;66378.44;5478544;26;22588;-66
2024/04/13 01:49:04;;;;;;;0.20;0.10;;;;;;;-146.84;100.00;66378.44;5482666;26;20262;-65
2024/04/13 01:51:31;;;;;;;0.20;0.10;;;;;;;-146.84;100.00;66378.44;5477912;26;20661;-66
2024/04/13 01:53:57;;;;;;;0.20;0.10;;;;;;;-146.84;100.00;66378.44;5481342;26;20242;-66
2024/04/13 01:56:23;;;;;;;0.20;0.10;;;;;;;-146.84;100.00;66378.44;5485426;26;20274;-66
2024/04/13 01:58:49;;;;;;;0.20;0.10;;;;;;;-146.84;100.00;66378.44;5480869;26;20291;-66
2024/04/13 02:01:15;;;;;;;0.20;0.10;;;;;;;-146.84;100.00;66378.44;5481485;26;20223;-66
2024/04/13 02:03:41;;;;;;;0.20;0.10;;;;;;;-146.84;100.00;66378.44;5476933;26;20239;-66
2024/04/13 02:06:09;;;;;;;0.20;0.10;;;;;;;-146.84;100.00;66378.44;5482912;26;20231;-66
2024/04/13 02:08:35;;;;;;;0.20;0.10;;;;;;;-146.84;100.00;66378.44;5485157;26;20281;-66
2024/04/13 02:11:01;;;;;;;0.20;0.10;;;;;;;-146.84;100.00;66378.44;5476894;26;20287;-66
2024/04/13 02:13:28;;;;;;;0.20;0.00;;;;;;;-146.84;100.00;66378.44;5482944;26;20352;-66
2024/04/13 02:15:57;;;;;;;0.20;0.10;;;;;;;-146.84;100.00;66378.44;5479151;26;20287;-66
2024/04/13 02:18:23;;;;;;;0.20;0.10;;;;;;;-146.84;100.00;66378.44;5484739;26;20223;-65
2024/04/13 02:20:49;;;;;;;0.20;0.10;;;;;;;-146.84;100.00;66378.44;5479327;26;20273;-65
2024/04/13 02:23:15;;;;;;;0.20;0.10;;;;;;;-146.84;100.00;66378.44;5483966;26;20271;-65
2024/04/13 02:25:46;;;;;;;0.20;0.10;;;;;;;-146.84;100.00;66378.44;5478539;26;20281;-65
2024/04/13 02:28:12;;;;;;;0.20;0.10;;;;;;;-146.84;100.00;66378.44;5487005;26;20224;-65
2024/04/13 02:30:39;;;;;;;0.20;0.10;;;;;;;-146.84;100.00;66378.44;5477966;25;20297;-66
2024/04/13 02:33:06;;;;;;;0.20;0.10;;;;;;;-146.84;100.00;66378.44;5495440;26;20757;-65
2024/04/13 02:35:32;;;;;;;0.20;0.10;;;;;;;-146.84;100.00;66378.44;5481072;26;20231;-65
2024/04/13 02:37:59;;;;;;;0.20;0.10;;;;;;;-146.84;100.00;66378.44;5484678;26;20222;-66
2024/04/13 02:40:25;;;;;;;0.20;0.10;;;;;;;-146.84;100.00;66378.44;5476612;26;20232;-66
2024/04/13 02:42:52;;;;;;;0.20;0.10;;;;;;;-146.84;100.00;66378.44;5485671;26;20223;-65
2024/04/13 02:45:20;;;;;;;0.20;0.10;;;;;;;-146.84;100.00;66378.44;5483040;26;20225;-65
2024/04/13 02:47:48;;;;;;;0.20;0.10;;;;;;;-146.84;100.00;66378.44;5477428;26;20232;-65
2024/04/13 02:50:16;;;;;;;0.20;0.10;;;;;;;-146.84;100.00;66378.44;5483225;26;20223;-66
2024/04/13 02:52:42;;;;;;;0.20;0.10;;;;;;;-146.84;100.00;66378.44;5483062;26;20223;-65
2024/04/13 02:55:09;;;;;;;0.20;0.10;;;;;;;-146.84;100.00;66378.44;5479612;26;20226;-66
2024/04/13 02:57:35;;;;;;;0.20;0.10;;;;;;;-146.84;100.00;66378.44;5494750;26;20231;-65
2024/04/13 03:00:03;;;;;;;0.20;0.10;;;;;;;-146.84;100.00;66378.44;5487929;26;20265;-66
2024/04/13 03:02:29;;;;;;;0.20;0.10;;;;;;;-146.84;100.00;66378.44;5484398;26;20227;-65
2024/04/13 03:04:55;;;;;;;0.20;0.10;;;;;;;-146.84;100.00;66378.44;5486927;26;21111;-66
2024/04/13 03:07:21;;;;;;;0.20;0.10;;;;;;;-146.84;100.00;66378.44;5488876;26;20346;-65
2024/04/13 03:09:48;;;;;;;0.20;0.10;;;;;;;-146.84;100.00;66378.44;5492256;26;20295;-65
2024/04/13 03:12:17;;;;;;;0.20;0.10;;;;;;;-146.84;100.00;66378.44;5451931;26;20227;-66
2024/04/13 03:14:44;;;;;;;0.20;0.10;;;;;;;-146.84;100.00;66378.44;5492218;26;20272;-66
2024/04/13 03:17:10;;;;;;;0.20;0.10;;;;;;;-146.84;100.00;66378.44;5483358;26;20285;-65
2024/04/13 03:19:37;;;;;;;0.20;0.00;;;;;;;-146.84;100.00;66378.44;5482657;26;20360;-66
2024/04/13 03:22:03;;;;;;;0.20;0.10;;;;;;;-146.84;100.00;66378.44;5480835;26;20718;-66
2024/04/13 03:24:30;;;;;;;0.20;0.10;;;;;;;-146.84;100.00;66378.44;5482720;26;20626;-66
2024/04/13 03:26:56;;;;;;;0.20;0.10;;;;;;;-146.84;100.00;66378.44;5475694;26;20229;-66
2024/04/13 03:29:22;;;;;;;0.20;0.10;;;;;;;-146.84;100.00;66378.44;5482956;26;20603;-65
2024/04/13 03:31:48;;;;;;;0.20;0.10;;;;;;;-146.84;100.00;66378.44;5495125;26;20280;-66
2024/04/13 03:34:14;;;;;;;0.20;0.17;;;;;;;-146.84;100.00;66378.44;5473293;26;20819;-65
2024/04/13 03:36:40;;;;;;;0.20;0.10;;;;;;;-146.84;100.00;66378.44;5467394;26;20560;-65
2024/04/13 03:39:06;;;;;;;0.20;0.10;;;;;;;-146.84;100.00;66378.44;5483689;26;20222;-65
2024/04/13 03:41:33;;;;;;;0.20;0.08;;;;;;;-146.84;100.00;66378.44;5479253;26;20327;-66
2024/04/13 03:43:59;;;;;;;0.20;0.10;;;;;;;-146.84;100.00;66378.44;5483029;26;20277;-66
2024/04/13 03:46:25;;;;;;;0.20;0.10;;;;;;;-146.84;100.00;66378.44;5472749;26;20286;-66
2024/04/13 03:48:51;;;;;;;0.20;0.10;;;;;;;-146.84;100.00;66378.44;5476637;26;20236;-66
2024/04/13 03:51:17;;;;;;;0.20;0.10;;;;;;;-146.84;100.00;66378.44;5480195;26;20298;-66
2024/04/13 03:53:44;;;;;;;0.20;0.10;;;;;;;-146.84;100.00;66378.44;5479207;25;20267;-66
2024/04/13 03:56:10;;;;;;;0.20;0.10;;;;;;;-146.84;100.00;66378.44;5489671;26;20243;-66
2024/04/13 03:58:36;;;;;;;0.20;0.10;;;;;;;-146.84;100.00;66378.44;5479732;26;20340;-66
2024/04/13 04:01:03;;;;;;;0.20;0.10;;;;;;;-146.84;100.00;66378.44;5485026;26;20912;-66
2024/04/13 04:03:29;;;;;;;0.20;0.10;;;;;;;-146.84;100.00;66378.44;5485390;26;20246;-66
2024/04/13 04:05:55;;;;;;;0.20;0.10;;;;;;;-146.84;100.00;66378.44;5485528;26;20282;-65
2024/04/13 04:08:21;;;;;;;0.20;0.10;;;;;;;-146.84;100.00;66378.44;5492634;26;20258;-65
2024/04/13 04:10:47;;;;;;;0.20;0.10;;;;;;;-146.84;100.00;66378.44;5486609;26;20718;-66
2024/04/13 04:13:14;;;;;;;0.20;0.10;;;;;;;-146.84;100.00;66378.44;5486316;26;20227;-65
2024/04/13 04:15:41;;;;;;;0.20;0.10;;;;;;;-146.84;100.00;66378.44;5484329;26;20726;-66
2024/04/13 04:18:07;;;;;;;0.20;0.10;;;;;;;-146.84;100.00;66378.44;5484959;26;20228;-65
2024/04/13 04:20:34;;;;;;;0.20;0.10;;;;;;;-146.84;100.00;66378.44;5485321;26;20238;-66
2024/04/13 04:23:00;;;;;;;0.20;0.10;;;;;;;-146.84;100.00;66378.44;5482050;26;20520;-65
2024/04/13 04:25:27;;;;;;;0.20;0.10;;;;;;;-146.84;100.00;66378.44;5484339;26;20273;-65
2024/04/13 04:27:53;;;;;;;0.20;0.10;;;;;;;-146.84;100.00;66378.44;5486025;26;20355;-65
2024/04/13 04:30:19;;;;;;;0.20;0.10;;;;;;;-146.84;100.00;66378.44;5486729;26;20227;-65
2024/04/13 04:32:45;;;;;;;0.20;0.10;;;;;;;-146.84;100.00;66378.44;5486102;26;20231;-65
2024/04/13 04:35:11;;;;;;;0.20;0.10;;;;;;;-146.84;100.00;66378.44;5494654;26;20230;-65
2024/04/13 04:37:38;;;;;;;0.20;0.10;;;;;;;-146.84;100.00;66378.44;5487581;26;20319;-65
2024/04/13 04:40:08;;;;;;;0.20;0.10;;;;;;;-146.84;100.00;66378.44;5484345;26;20282;-65
2024/04/13 04:42:34;;;;;;;0.20;0.10;;;;;;;-146.84;100.00;66378.44;5485746;26;20269;-65
2024/04/13 04:45:00;;;;;;;0.20;0.10;;;;;;;-146.84;100.00;66378.44;5482898;26;20266;-65
2024/04/13 04:47:26;;;;;;;0.20;0.10;;;;;;;-146.84;100.00;66378.44;5484845;26;20730;-66
2024/04/13 04:49:52;;;;;;;0.20;0.10;;;;;;;-146.84;100.00;66378.44;5486223;26;20231;-65
2024/04/13 04:52:19;;;;;;;0.20;0.10;;;;;;;-146.84;100.00;66378.44;5454095;26;20254;-66
2024/04/13 04:54:45;;;;;;;0.20;0.10;;;;;;;-146.84;100.00;66378.44;5460445;26;20236;-65
2024/04/13 04:57:11;;;;;;;0.20;0.10;;;;;;;-146.84;100.00;66378.44;5485513;26;20230;-65
2024/04/13 04:59:38;;;;;;;0.20;0.10;;;;;;;-146.84;100.00;66378.44;5489434;26;20239;-65
2024/04/13 05:02:04;;;;;;;0.20;0.10;;;;;;;-146.84;100.00;66378.44;5452034;26;20236;-65
2024/04/13 05:04:31;;;;;;;0.20;0.10;;;;;;;-146.84;100.00;66378.44;5483269;26;20289;-65
2024/04/13 05:06:57;;;;;;;0.20;0.10;;;;;;;-146.84;100.00;66378.44;5480685;26;20262;-65
2024/04/13 05:09:23;;;;;;;0.20;0.10;;;;;;;-146.84;100.00;66378.44;5486479;26;20227;-65
2024/04/13 05:11:49;;;;;;;0.20;0.10;;;;;;;-146.84;100.00;66378.44;5485160;26;20223;-65
2024/04/13 05:14:18;;;;;;;0.20;0.05;;;;;;;-146.84;100.00;66378.44;5485940;26;20318;-65
2024/04/13 05:16:44;;;;;;;0.20;0.10;;;;;;;-146.84;100.00;66378.44;5483851;26;20239;-65
2024/04/13 05:19:11;;;;;;;0.20;0.10;;;;;;;-146.84;100.00;66378.44;5477055;26;20294;-65
2024/04/13 05:21:37;;;;;;;0.20;0.10;;;;;;;-146.84;100.00;66378.44;5485783;26;20227;-65
2024/04/13 05:24:04;;;;;;;0.20;0.10;;;;;;;-146.84;100.00;66378.44;5460909;26;20733;-65
2024/04/13 05:26:30;;;;;;;0.20;0.10;;;;;;;-146.84;100.00;66378.44;5484564;26;20760;-65
2024/04/13 05:28:56;;;;;;;0.20;0.10;;;;;;;-146.84;100.00;66378.44;5487307;26;20281;-66
2024/04/13 05:31:23;;;;;;;0.20;0.10;;;;;;;-146.84;100.00;66378.44;5483918;26;20274;-65
2024/04/13 05:33:49;;;;;;;0.20;0.10;;;;;;;-146.84;100.00;66378.44;5496548;26;20277;-66
2024/04/13 05:36:15;;;;;;;0.20;0.10;;;;;;;-146.84;100.00;66378.44;5489053;26;20281;-65
2024/04/13 05:38:41;;;;;;;0.20;0.10;;;;;;;-146.84;100.00;66378.44;5502144;26;20259;-65
2024/04/13 05:41:07;;;;;;;0.20;0.10;;;;;;;-146.84;100.00;66378.44;5484878;26;20238;-64
2024/04/13 05:43:33;;;;;;;0.20;0.10;;;;;;;-146.84;100.00;66378.44;5474455;26;20726;-65
2024/04/13 05:46:02;;;;;;;0.20;0.20;;;;;;;-146.84;100.00;66378.44;5487351;26;20231;-65
2024/04/13 05:48:28;;;;;;;0.20;0.10;;;;;;;-146.84;100.00;66378.44;5484088;26;20568;-65
2024/04/13 05:50:56;;;;;;;0.20;0.10;;;;;;;-146.84;100.00;66378.44;5499275;26;20898;-66
2024/04/13 05:53:22;;;;;;;0.20;0.10;;;;;;;-146.84;100.00;66378.44;5482016;26;20237;-65
2024/04/13 05:55:49;;;;;;;0.20;0.10;;;;;;;-146.84;100.00;66378.44;5493302;26;20226;-65
2024/04/13 05:58:16;;;;;;;0.20;0.10;;;;;;;-146.84;100.00;66378.44;5492040;26;20368;-64
2024/04/13 06:00:46;;;;;;;0.20;0.10;;;;;;;-146.84;100.00;66378.44;5477015;26;20273;-65
2024/04/13 06:03:12;;;;;;;0.20;0.10;;;;;;;-146.84;100.00;66378.44;5485916;26;20273;-64
2024/04/13 06:05:40;;;;;;;0.20;0.10;;;;;;;-146.84;100.00;66378.44;5484465;26;20242;-65
2024/04/13 06:08:06;;;;;;;0.20;0.10;;;;;;;-146.84;100.00;66378.44;5497833;26;20975;-65
2024/04/13 06:10:32;;;;;;;0.20;0.10;;;;;;;-146.84;100.00;66378.44;5493662;26;20304;-64
2024/04/13 06:12:59;;;;;;;0.20;0.10;;;;;;;-146.84;100.00;66378.44;5504080;26;20230;-65
2024/04/13 06:15:25;;;;;;;0.20;0.10;;;;;;;-146.84;100.00;66378.44;5488479;26;20238;-66
2024/04/13 06:17:51;;;;;;;0.20;0.10;;;;;;;-146.84;100.00;66378.44;5487453;26;20277;-64
2024/04/13 06:20:17;;;;;;;0.20;0.10;;;;;;;-146.84;100.00;66378.44;5484031;26;20231;-66
2024/04/13 06:22:43;;;;;;;0.20;0.10;;;;;;;-146.84;100.00;66378.44;5483054;26;20258;-66
2024/04/13 06:25:10;;;;;;;0.20;0.10;;;;;;;-146.84;100.00;66378.44;5480142;26;20826;-65
2024/04/13 06:27:40;;;;;;;0.20;0.10;;;;;;;-146.84;100.00;66378.44;5482934;26;20231;-65
2024/04/13 06:30:07;;;;;;;0.20;0.10;;;;;;;-146.84;100.00;66378.44;5477942;26;20227;-65
2024/04/13 06:32:33;;;;;;;0.20;0.10;;;;;;;-146.84;100.00;66378.44;5486568;26;20222;-65
2024/04/13 06:34:59;;;;;;;0.20;0.10;;;;;;;-146.84;100.00;66378.44;5483780;26;20451;-66
2024/04/13 06:37:26;;;;;;;0.20;0.10;;;;;;;-146.84;100.00;66378.44;5493092;26;20718;-72
2024/04/13 06:39:52;;;;;;;0.20;0.10;;;;;;;-146.84;100.00;66378.44;5472234;26;20570;-68
2024/04/13 06:42:18;;;;;;;0.20;0.10;;;;;;;-146.84;100.00;66378.44;5480305;26;20266;-73
2024/04/13 06:44:44;;;;;;;0.20;0.10;;;;;;;-146.84;100.00;66378.44;5476653;26;20691;-68
2024/04/13 06:47:11;;;;;;;0.20;0.10;;;;;;;-146.84;100.00;66378.44;5487011;26;20235;-68
2024/04/13 06:49:38;;;;;;;0.20;0.10;;;;;;;-146.84;100.00;66378.44;5478683;26;20308;-68
2024/04/13 06:52:04;;;;;;;0.20;0.10;;;;;;;-146.84;100.00;66378.44;5497186;26;20231;-68
2024/04/13 06:54:30;;;;;;;0.20;0.10;;;;;;;-146.84;100.00;66378.44;5533520;25;20221;-65
2024/04/13 06:56:56;;;;;;;0.20;0.10;;;;;;;-146.84;100.00;66378.44;5484066;26;20281;-66
2024/04/13 06:59:22;;;;;;;0.20;0.10;;;;;;;-146.84;100.00;66378.44;5481982;26;20273;-66
2024/04/13 07:01:49;;;;;;;0.20;0.10;;;;;;;-146.84;100.00;66378.44;5482163;26;20323;-66
2024/04/13 07:04:16;;;;;;;0.20;0.08;;;;;;;-146.84;100.00;66378.44;5483308;26;20284;-66
2024/04/13 07:06:42;;;;;;;0.20;0.10;;;;;;;-146.84;100.00;66378.44;5481990;26;20274;-65
2024/04/13 07:09:11;;;;;;;0.20;0.10;;;;;;;-146.84;100.00;66378.44;5461159;26;20887;-65
2024/04/13 07:11:37;;;;;;;0.20;0.10;;;;;;;-146.84;100.00;66378.44;5481607;26;20277;-66
2024/04/13 07:14:03;;;;;;;0.20;0.10;;;;;;;-146.84;100.00;66378.44;5483013;26;20257;-66
2024/04/13 07:16:30;;;;;;;0.20;0.10;;;;;;;-146.84;100.00;66378.44;5482075;26;20226;-66
2024/04/13 07:18:56;;;;;;;0.20;0.10;;;;;;;-146.84;100.00;66378.44;5486526;26;20223;-66
2024/04/13 07:21:22;;;;;;;0.20;0.10;;;;;;;-146.84;100.00;66378.44;5477960;26;20981;-66
2024/04/13 07:23:49;;;;;;;0.20;0.10;;;;;;;-146.84;100.00;66378.44;5476161;26;20274;-66
2024/04/13 07:26:15;;;;;;;0.20;0.10;;;;;;;-146.84;100.00;66378.44;5481711;26;20231;-66
2024/04/13 07:28:41;;;;;;;0.20;0.10;;;;;;;-146.84;100.00;66378.44;5487141;26;20254;-66
2024/04/13 07:31:07;;;;;;;0.20;0.10;;;;;;;-146.84;100.00;66378.44;5484378;26;20227;-66
2024/04/13 07:33:33;;;;;;;0.20;0.10;;;;;;;-146.84;100.00;66378.44;5473274;26;20232;-66
2024/04/13 07:35:59;;;;;;;0.20;0.10;;;;;;;-146.84;100.00;66378.44;5451526;26;20346;-66
2024/04/13 07:38:26;;;;;;;0.20;0.10;;;;;;;-146.84;100.00;66378.44;5478746;26;20223;-69
2024/04/13 07:40:52;;;;;;;0.20;0.10;;;;;;;-146.84;100.00;66378.44;5479804;26;20226;-70
2024/04/13 07:43:19;;;;;;;0.20;0.10;;;;;;;-146.84;100.00;66378.44;5483486;26;20703;-66
2024/04/13 07:45:47;;;;;;;0.20;0.10;;;;;;;-146.84;100.00;66378.44;5483239;26;20265;-66
2024/04/13 07:48:13;;;;;;;0.20;0.10;;;;;;;-146.84;100.00;66378.44;5477641;26;20239;-70
2024/04/13 07:50:39;;;;;;;0.20;0.10;;;;;;;-146.84;100.00;66378.44;5483197;26;20228;-70
2024/04/13 07:53:05;;;;;;;0.38;0.10;;;;;;;-146.84;100.00;66378.44;5484327;26;20993;-69
2024/04/13 07:55:31;;;;;;;0.20;0.10;;;;;;;-146.84;100.00;66378.44;5485656;26;20227;-69
2024/04/13 07:57:58;;;;;;;0.20;0.10;;;;;;;-146.84;100.00;66378.44;5497926;25;20753;-68
2024/04/13 08:00:24;;;;;;;0.20;0.10;;;;;;;-146.84;100.00;66378.44;5484886;26;20367;-69
2024/04/13 08:02:51;;;;;;;0.20;0.03;;;;;;;-146.84;100.00;66378.44;5472208;26;20554;-69
2024/04/13 08:05:17;;;;;;;0.20;0.10;;;;;;;-146.84;100.00;66378.44;5481705;26;20227;-70
2024/04/13 08:07:43;;;;;;;0.20;0.10;;;;;;;-146.84;100.00;66378.44;5477325;26;20306;-70
2024/04/13 08:10:09;;;;;;;0.20;0.10;;;;;;;-146.84;100.00;66378.44;5482945;26;20294;-68
2024/04/13 08:12:35;;;;;;;0.20;0.10;;;;;;;-146.84;100.00;66378.44;5482767;26;20294;-68
2024/04/13 08:15:02;;;;;;;0.20;0.10;;;;;;;-146.84;100.00;66378.44;5482971;26;20227;-69
2024/04/13 08:17:29;;;;;;;0.20;0.10;;;;;;;-146.84;100.00;66378.44;5475400;26;20260;-68
2024/04/13 08:19:55;;;;;;;0.20;0.10;;;;;;;-146.84;100.00;66378.44;5475028;26;20235;-69
2024/04/13 08:22:21;;;;;;;0.20;0.10;;;;;;;-146.84;100.00;66378.44;5454740;26;20223;-70
2024/04/13 08:24:48;;;;;;;0.20;0.10;;;;;;;-146.84;100.00;66378.44;5481278;26;20231;-70
2024/04/13 08:27:14;;;;;;;0.20;0.10;;;;;;;-146.84;100.00;66378.44;5481153;26;20223;-70
2024/04/13 08:29:40;;;;;;;0.20;0.10;;;;;;;-146.84;100.00;66378.44;5472211;26;20262;-69
2024/04/13 08:32:06;;;;;;;0.20;0.10;;;;;;;-146.84;100.00;66378.44;5485898;26;20317;-69
2024/04/13 08:34:33;;;;;;;0.20;0.10;;;;;;;-146.84;100.00;66378.44;5491542;26;20426;-69
2024/04/13 08:36:59;;;;;;;0.20;0.10;;;;;;;-146.84;100.00;66378.44;5475201;26;20303;-68
2024/04/13 08:39:25;;;;;;;0.20;0.10;;;;;;;-146.84;100.00;66378.44;5468101;26;20239;-68
2024/04/13 08:42:06;;;;;;;0.20;0.10;;;;;;;-146.84;100.00;66378.44;5493832;26;20226;-68
2024/04/13 08:44:36;;;;;;;0.20;0.10;;;;;;;-146.84;100.00;66378.44;5480628;26;20230;-71
2024/04/13 08:47:03;;;;;;;0.20;0.10;;;;;;;-146.84;100.00;66378.44;5493050;26;20295;-72
2024/04/13 08:49:36;;;;;;;0.20;0.20;;;;;;;-146.84;100.00;66378.44;5491826;26;20230;-72
2024/04/13 08:52:06;;;;;;;0.20;0.10;;;;;;;-146.84;100.00;66378.44;5499825;26;20222;-71
2024/04/13 08:54:32;;;;;;;0.20;0.10;;;;;;;-146.84;100.00;66378.44;5494472;26;20622;-71
2024/04/13 08:57:01;;;;;;;0.20;0.10;;;;;;;-146.84;100.00;66378.44;5446113;26;20306;-71
2024/04/13 08:59:28;;;;;;;0.20;0.10;;;;;;;-146.84;100.00;66378.44;5490721;26;20246;-70
2024/04/13 09:01:56;;;;;;;0.20;0.10;;;;;;;-146.84;100.00;66378.44;5495752;26;20286;-71
2024/04/13 09:04:22;;;;;;;0.20;0.10;;;;;;;-146.84;100.00;66378.44;5450047;26;20330;-70
2024/04/13 09:06:52;;;;;;;0.20;0.10;;;;;;;-146.84;100.00;66378.44;5475855;26;20236;-68
2024/04/13 09:09:18;;;;;;;0.20;0.10;;;;;;;-146.84;100.00;66378.44;5478136;26;20320;-73
2024/04/13 09:11:44;;;;;;;0.20;0.10;;;;;;;-146.84;100.00;66378.44;5475782;26;20326;-72
2024/04/13 09:14:12;;;;;;;0.20;0.10;;;;;;;-146.84;100.00;66378.44;5465487;26;20360;-69
2024/04/13 09:16:39;;;;;;;0.20;0.10;;;;;;;-146.84;100.00;66378.44;5481035;25;20280;-69
2024/04/13 09:19:05;;;;;;;0.20;0.10;;;;;;;-146.84;100.00;66378.44;5478755;26;20347;-74
2024/04/13 09:21:31;;;;;;;0.20;0.10;;;;;;;-146.84;100.00;66378.44;5480696;26;21002;-69
2024/04/13 09:23:58;;;;;;;0.20;0.10;;;;;;;-146.84;100.00;66378.44;5471905;26;20238;-69
2024/04/13 09:26:24;;;;;;;0.20;0.10;;;;;;;-146.84;100.00;66378.44;5477160;26;20277;-72
2024/04/13 09:28:51;;;;;;;0.20;0.10;;;;;;;-146.84;100.00;66378.44;5473878;26;20615;-71
2024/04/13 09:31:18;;;;;;;0.20;0.10;;;;;;;-146.84;100.00;66378.44;5476755;26;20330;-68
2024/04/13 09:33:49;;;;;;;0.20;0.10;;;;;;;-146.84;100.00;66378.44;5481196;26;21181;-67
2024/04/13 09:36:25;;;;;;;0.20;0.10;;;;;;;-146.84;100.00;66378.44;5472641;25;20277;-68
2024/04/13 09:38:54;;;;;;;0.20;0.10;;;;;;;-146.84;100.00;66378.44;5475312;25;20339;-68
2024/04/13 09:41:22;;;;;;;0.20;0.10;;;;;;;-146.84;100.00;66378.44;5472946;26;20234;-66
2024/04/13 09:43:49;;;;;;;0.20;0.10;;;;;;;-146.84;100.00;66378.44;5439752;26;20334;-67
2024/04/13 09:46:17;;;;;;;0.20;0.10;;;;;;;-146.84;100.00;66378.44;5478527;26;20256;-67
2024/04/13 09:48:43;;;;;;;0.20;0.10;;;;;;;-146.84;100.00;66378.44;5493111;26;20222;-66
2024/04/13 09:51:09;;;;;;;0.20;0.10;;;;;;;-146.84;100.00;66378.44;5485957;26;20338;-66
2024/04/13 09:53:36;;;;;;;0.20;0.10;;;;;;;-146.84;100.00;66378.44;5498295;26;20217;-67
2024/04/13 09:56:03;;;;;;;0.20;0.13;;;;;;;-146.84;100.00;66378.44;5469857;26;20290;-68
2024/04/13 09:58:29;;;;;;;0.20;0.10;;;;;;;-146.84;100.00;66378.44;5494747;26;20233;-67
2024/04/13 10:00:58;;;;;;;0.20;0.10;;;;;;;-146.84;100.00;66378.44;5482932;26;20227;-66
2024/04/13 10:03:24;;;;;;;0.20;0.10;;;;;;;-146.84;100.00;66378.44;5480288;26;20337;-67
2024/04/13 10:05:54;;;;;;;0.20;0.10;;;;;;;-146.84;100.00;66378.44;5473703;26;20278;-66
2024/04/13 10:08:20;;;;;;;0.20;0.10;;;;;;;-146.84;100.00;66378.44;5476800;26;20272;-66
2024/04/13 10:10:50;;;;;;;0.20;0.13;;;;;;;-146.84;100.00;66378.44;5483634;26;20326;-66
2024/04/13 10:13:32;;;;;;;0.20;0.10;;;;;;;-146.84;100.00;66378.44;5489771;26;20235;-70
2024/04/13 10:15:59;;;;;;;0.20;0.10;;;;;;;-146.84;100.00;66378.44;5470489;26;20330;-74
2024/04/13 10:18:25;;;;;;;0.20;0.10;;;;;;;-146.84;100.00;66378.44;5483917;26;20710;-73
2024/04/13 10:20:52;;;;;;;0.20;0.10;;;;;;;-146.84;100.00;66378.44;5516876;25;20299;-72
2024/04/13 10:23:18;;;;;;;0.20;0.10;;;;;;;-146.84;100.00;66378.44;5474781;26;20286;-69
2024/04/13 10:25:54;;;;;;;0.20;0.10;;;;;;;-146.84;100.00;66378.44;5475474;26;20302;-71
2024/04/13 10:28:27;;;;;;;0.20;0.13;;;;;;;-146.84;100.00;66378.44;5480372;26;20238;-70
2024/04/13 10:30:55;;;;;;;0.20;0.10;;;;;;;-146.84;100.00;66378.44;5481262;26;20308;-67
2024/04/13 10:33:30;;;;;;;0.20;0.10;;;;;;;-146.84;100.00;66378.44;5472618;26;21096;-68
2024/04/13 10:35:56;;;;;;;0.20;0.10;;;;;;;-146.84;100.00;66378.44;5477180;26;20416;-67
2024/04/13 10:38:23;;;;;;;0.20;0.10;;;;;;;-146.84;100.00;66378.44;5484198;26;20788;-66
2024/04/13 10:40:50;;;;;;;0.20;0.10;;;;;;;-146.84;100.00;66378.44;5469530;26;20224;-67
2024/04/13 10:43:20;;;;;;;0.20;0.10;;;;;;;-146.84;100.00;66378.44;5480545;26;20231;-68
2024/04/13 10:46:02;;;;;;;0.20;0.10;;;;;;;-146.84;100.00;66378.44;5481244;26;20831;-66
2024/04/13 10:48:30;;;;;;;0.20;0.10;;;;;;;-146.84;100.00;66378.44;5481012;26;20218;-69
2024/04/13 10:50:57;;;;;;;0.20;0.10;;;;;;;-146.84;100.00;66378.44;5467442;26;20276;-67
2024/04/13 10:53:28;;;;;;;0.20;0.10;;;;;;;-146.84;100.00;66378.44;5479842;26;20271;-65
2024/04/13 10:55:58;;;;;;;0.20;0.10;;;;;;;-146.84;100.00;66378.44;5474191;26;20235;-72
2024/04/13 10:58:35;;;;;;;0.20;0.10;;;;;;;-146.84;100.00;66378.44;5484344;26;20736;-69
2024/04/13 11:01:01;;;;;;;0.20;0.10;;;;;;;-146.84;100.00;66378.44;5489836;26;20226;-67
2024/04/13 11:03:29;;;;;;;0.20;0.10;;;;;;;-146.84;100.00;66378.44;5479032;26;20330;-67
2024/04/13 11:05:55;;;;;;;0.20;0.10;;;;;;;-146.84;100.00;66378.44;5480328;26;20273;-69
2024/04/13 11:08:23;;;;;;;0.20;0.10;;;;;;;-146.84;100.00;66378.44;5480502;26;20286;-68